createdAt,value
2022-07-31T00:01:20.163Z,23.31
2022-07-31T00:03:46.727Z,23.28
2022-07-31T00:06:13.243Z,23.24
2022-07-31T00:08:39.709Z,23.21
2022-07-31T00:11:06.187Z,23.17
2022-07-31T00:13:57.593Z,23.14
2022-07-31T00:16:19.142Z,23.14
2022-07-31T00:18:45.570Z,23.10
2022-07-31T00:21:14.001Z,23.04
2022-07-31T00:23:41.146Z,22.98
2022-07-31T00:26:07.915Z,22.94
2022-07-31T00:28:34.573Z,22.90
2022-07-31T00:31:01.198Z,22.86
2022-07-31T00:33:27.667Z,22.82
2022-07-31T00:35:54.099Z,22.79
2022-07-31T00:38:28.051Z,22.76
2022-07-31T00:40:54.692Z,22.74
2022-07-31T00:43:21.827Z,22.73
2022-07-31T00:45:53.216Z,22.72
2022-07-31T00:48:25.836Z,22.72
2022-07-31T00:50:54.129Z,22.73
2022-07-31T00:53:20.600Z,22.74
2022-07-31T00:55:51.862Z,22.75
2022-07-31T00:58:19.953Z,22.76
2022-07-31T01:00:46.994Z,22.77
2022-07-31T01:03:14.353Z,22.77
2022-07-31T01:05:41.671Z,22.78
2022-07-31T01:08:08.105Z,22.79
2022-07-31T01:10:55.069Z,22.80
2022-07-31T01:13:41.101Z,22.83
2022-07-31T01:16:11.334Z,22.84
2022-07-31T01:18:39.410Z,22.83
2022-07-31T01:21:08.814Z,22.84
2022-07-31T01:24:03.666Z,22.84
2022-07-31T01:26:39.004Z,22.83
2022-07-31T01:29:34.715Z,22.84
2022-07-31T01:32:13.435Z,22.82
2022-07-31T01:34:48.394Z,22.81
2022-07-31T01:37:20.714Z,22.79
2022-07-31T01:39:52.935Z,22.77
2022-07-31T01:42:20.903Z,22.77
2022-07-31T01:44:53.201Z,22.75
2022-07-31T01:47:21.541Z,22.74
2022-07-31T01:49:50.582Z,22.73
2022-07-31T01:52:19.286Z,22.71
2022-07-31T01:54:47.416Z,22.69
2022-07-31T01:57:18.620Z,22.68
2022-07-31T01:59:47.847Z,22.64
2022-07-31T02:02:16.155Z,22.61
2022-07-31T02:04:43.974Z,22.56
2022-07-31T02:07:11.099Z,22.52
2022-07-31T02:09:58.057Z,22.48
2022-07-31T02:12:33.441Z,22.42
2022-07-31T02:15:03.455Z,22.35
2022-07-31T02:17:30.275Z,22.29
2022-07-31T02:20:00.193Z,22.22
2022-07-31T02:22:29.417Z,22.14
2022-07-31T02:24:56.109Z,22.08
2022-07-31T02:27:55.579Z,22.03
2022-07-31T02:30:11.421Z,21.95
2022-07-31T02:32:38.573Z,21.89
2022-07-31T02:35:07.194Z,21.83
2022-07-31T02:37:36.293Z,21.79
2022-07-31T02:40:04.796Z,21.73
2022-07-31T02:42:31.571Z,21.69
2022-07-31T02:44:59.378Z,21.65
2022-07-31T02:47:26.049Z,21.61
2022-07-31T02:49:54.626Z,21.59
2022-07-31T02:52:21.510Z,21.58
2022-07-31T02:54:48.393Z,21.56
2022-07-31T02:57:15.021Z,21.55
2022-07-31T02:59:41.537Z,21.54
2022-07-31T03:02:07.962Z,21.53
2022-07-31T03:04:34.734Z,21.53
2022-07-31T03:07:01.411Z,21.53
2022-07-31T03:09:28.450Z,21.53
2022-07-31T03:11:54.944Z,21.51
2022-07-31T03:14:23.093Z,21.52
2022-07-31T03:16:51.759Z,21.46
2022-07-31T03:19:21.018Z,21.44
2022-07-31T03:21:49.868Z,21.42
2022-07-31T03:24:17.848Z,21.37
2022-07-31T03:26:44.296Z,21.34
2022-07-31T03:29:39.065Z,21.29
2022-07-31T03:31:57.133Z,21.29
2022-07-31T03:34:23.499Z,21.28
2022-07-31T03:36:51.616Z,21.22
2022-07-31T03:39:18.109Z,21.16
2022-07-31T03:41:45.490Z,21.10
2022-07-31T03:44:12.571Z,21.05
2022-07-31T03:46:39.413Z,21.00
2022-07-31T03:49:07.793Z,20.95
2022-07-31T03:51:34.585Z,20.94
2022-07-31T03:54:01.337Z,20.90
2022-07-31T03:56:28.866Z,20.87
2022-07-31T03:58:55.516Z,20.84
2022-07-31T04:01:23.064Z,20.83
2022-07-31T04:03:58.004Z,20.82
2022-07-31T04:06:24.442Z,20.79
2022-07-31T04:08:50.914Z,20.79
2022-07-31T04:11:17.580Z,20.78
2022-07-31T04:13:44.039Z,20.78
2022-07-31T04:16:10.503Z,20.79
2022-07-31T04:18:36.974Z,20.80
2022-07-31T04:21:03.519Z,20.81
2022-07-31T04:23:32.241Z,20.84
2022-07-31T04:25:59.344Z,20.86
2022-07-31T04:28:26.408Z,20.89
2022-07-31T04:30:53.009Z,20.92
2022-07-31T04:33:19.595Z,20.95
2022-07-31T04:35:46.128Z,20.99
2022-07-31T04:38:12.635Z,21.02
2022-07-31T04:40:39.369Z,21.07
2022-07-31T04:43:05.957Z,21.10
2022-07-31T04:45:32.481Z,21.15
2022-07-31T04:47:58.947Z,21.21
2022-07-31T04:50:25.455Z,21.27
2022-07-31T04:52:51.966Z,21.36
2022-07-31T04:55:18.492Z,21.44
2022-07-31T04:57:44.927Z,21.53
2022-07-31T05:00:11.844Z,21.61
2022-07-31T05:02:38.292Z,21.72
2022-07-31T05:05:05.109Z,21.81
2022-07-31T05:07:31.657Z,21.91
2022-07-31T05:09:58.763Z,22.01
2022-07-31T05:12:25.237Z,22.09
2022-07-31T05:14:51.890Z,22.18
2022-07-31T05:17:18.351Z,22.26
2022-07-31T05:19:44.791Z,22.35
2022-07-31T05:22:11.624Z,22.43
2022-07-31T05:24:38.120Z,22.51
2022-07-31T05:27:05.161Z,22.55
2022-07-31T05:29:33.221Z,22.64
2022-07-31T05:32:01.102Z,22.68
2022-07-31T05:34:30.985Z,22.74
2022-07-31T05:37:01.220Z,22.79
2022-07-31T05:39:28.642Z,22.85
2022-07-31T05:41:55.279Z,22.89
2022-07-31T05:44:21.830Z,22.94
2022-07-31T05:46:48.330Z,23.00
2022-07-31T05:49:14.842Z,23.05
2022-07-31T05:51:45.501Z,23.11
2022-07-31T05:54:11.939Z,23.16
2022-07-31T05:56:38.392Z,23.23
2022-07-31T05:59:04.880Z,23.29
2022-07-31T06:01:31.355Z,23.36
2022-07-31T06:03:57.861Z,23.43
2022-07-31T06:06:24.728Z,23.51
2022-07-31T06:08:51.276Z,23.59
2022-07-31T06:11:17.748Z,23.66
2022-07-31T06:13:44.267Z,23.72
2022-07-31T06:16:16.721Z,23.77
2022-07-31T06:18:43.452Z,23.79
2022-07-31T06:23:36.848Z,23.84
2022-07-31T06:26:04.219Z,23.85
2022-07-31T06:28:47.954Z,23.86
2022-07-31T06:31:18.170Z,23.89
2022-07-31T06:33:48.195Z,23.92
2022-07-31T06:36:14.748Z,23.96
2022-07-31T06:38:41.283Z,24.02
2022-07-31T06:41:07.728Z,24.08
2022-07-31T06:43:34.183Z,24.17
2022-07-31T06:46:00.648Z,24.27
2022-07-31T06:48:27.132Z,24.39
2022-07-31T06:51:14.615Z,24.53
2022-07-31T06:53:41.467Z,24.71
2022-07-31T06:56:07.896Z,24.87
2022-07-31T06:58:34.364Z,25.01
2022-07-31T07:01:00.819Z,25.14
2022-07-31T07:03:27.267Z,25.27
2022-07-31T07:05:53.781Z,25.39
2022-07-31T07:08:20.362Z,25.50
2022-07-31T07:10:46.780Z,25.59
2022-07-31T07:13:13.218Z,25.66
2022-07-31T07:15:39.665Z,25.71
2022-07-31T07:18:06.902Z,25.77
2022-07-31T07:20:33.848Z,25.83
2022-07-31T07:23:00.314Z,25.91
2022-07-31T07:25:26.788Z,25.98
2022-07-31T07:27:53.853Z,26.06
2022-07-31T07:30:20.432Z,26.15
2022-07-31T07:32:46.863Z,26.23
2022-07-31T07:35:13.274Z,26.30
2022-07-31T07:37:40.947Z,26.36
2022-07-31T07:40:09.034Z,26.43
2022-07-31T07:42:35.536Z,26.48
2022-07-31T07:45:06.584Z,26.54
2022-07-31T07:47:53.765Z,26.62
2022-07-31T07:50:22.788Z,26.70
2022-07-31T07:52:53.916Z,26.77
2022-07-31T07:55:20.475Z,26.83
2022-07-31T07:57:46.895Z,26.89
2022-07-31T08:00:14.127Z,26.95
2022-07-31T08:02:42.583Z,27.01
2022-07-31T08:05:10.637Z,27.07
2022-07-31T08:07:42.134Z,27.11
2022-07-31T08:10:09.915Z,27.14
2022-07-31T08:12:37.246Z,27.20
2022-07-31T08:15:04.776Z,27.24
2022-07-31T08:17:31.282Z,27.29
2022-07-31T08:19:57.822Z,27.33
2022-07-31T08:22:24.269Z,27.36
2022-07-31T08:24:50.666Z,27.38
2022-07-31T08:27:39.950Z,27.40
2022-07-31T08:30:08.100Z,27.42
2022-07-31T08:32:34.781Z,27.44
2022-07-31T08:35:01.340Z,27.46
2022-07-31T08:38:01.556Z,27.50
2022-07-31T08:40:17.065Z,27.55
2022-07-31T08:42:45.581Z,27.60
2022-07-31T08:45:12.566Z,27.65
2022-07-31T08:47:42.003Z,27.71
2022-07-31T08:50:12.987Z,27.76
2022-07-31T08:52:42.680Z,27.84
2022-07-31T08:55:10.482Z,27.92
2022-07-31T08:57:51.806Z,27.99
2022-07-31T09:00:19.791Z,28.04
2022-07-31T09:02:46.318Z,28.11
2022-07-31T09:05:13.263Z,28.15
2022-07-31T09:07:40.310Z,28.20
2022-07-31T09:10:26.837Z,28.26
2022-07-31T09:12:54.374Z,28.27
2022-07-31T09:15:25.475Z,28.30
2022-07-31T09:17:54.039Z,28.36
2022-07-31T09:20:29.329Z,28.41
2022-07-31T09:23:14.301Z,28.49
2022-07-31T09:26:04.971Z,28.56
2022-07-31T09:28:39.226Z,28.60
2022-07-31T09:31:07.940Z,28.59
2022-07-31T09:33:36.593Z,28.60
2022-07-31T09:36:03.305Z,28.60
2022-07-31T09:38:48.236Z,28.63
2022-07-31T09:41:56.716Z,28.71
2022-07-31T09:44:10.136Z,28.81
2022-07-31T09:46:48.383Z,28.99
2022-07-31T09:49:15.983Z,29.08
2022-07-31T09:51:45.487Z,29.19
2022-07-31T09:54:22.553Z,29.27
2022-07-31T09:56:50.289Z,29.31
2022-07-31T09:59:17.459Z,29.39
2022-07-31T10:01:48.590Z,29.47
2022-07-31T10:04:17.642Z,29.54
2022-07-31T10:06:48.793Z,29.64
2022-07-31T10:09:17.707Z,29.70
2022-07-31T10:11:45.464Z,29.77
2022-07-31T10:14:18.642Z,29.87
2022-07-31T10:16:45.429Z,29.91
2022-07-31T10:19:13.892Z,29.95
2022-07-31T10:21:43.821Z,29.95
2022-07-31T10:24:11.524Z,29.95
2022-07-31T10:29:26.719Z,29.94
2022-07-31T10:31:54.048Z,29.94
2022-07-31T10:34:21.727Z,29.95
2022-07-31T10:36:53.691Z,29.96
2022-07-31T10:39:44.095Z,29.97
2022-07-31T10:42:26.823Z,29.97
2022-07-31T10:45:14.234Z,29.97
2022-07-31T10:47:48.650Z,29.95
2022-07-31T10:50:21.368Z,29.96
2022-07-31T10:52:48.026Z,29.94
2022-07-31T10:55:22.209Z,29.94
2022-07-31T10:57:57.191Z,29.93
2022-07-31T11:00:29.471Z,29.92
2022-07-31T11:02:56.530Z,29.92
2022-07-31T11:05:23.632Z,29.90
2022-07-31T11:08:01.442Z,29.89
2022-07-31T11:10:27.942Z,29.86
2022-07-31T11:13:09.129Z,29.88
2022-07-31T11:15:37.490Z,29.86
2022-07-31T11:18:24.888Z,29.87
2022-07-31T11:21:17.850Z,29.86
2022-07-31T11:24:02.786Z,29.85
2022-07-31T11:26:40.928Z,29.81
2022-07-31T11:30:01.551Z,29.75
2022-07-31T11:32:00.306Z,29.70
2022-07-31T11:34:26.731Z,29.62
2022-07-31T11:36:53.261Z,29.55
2022-07-31T11:39:23.740Z,29.48
2022-07-31T11:42:03.786Z,29.42
2022-07-31T11:44:30.299Z,29.35
2022-07-31T11:46:56.754Z,29.31
2022-07-31T11:49:44.144Z,29.28
2022-07-31T11:52:30.428Z,29.25
2022-07-31T11:55:13.387Z,29.26
2022-07-31T11:57:50.839Z,29.25
2022-07-31T12:00:26.613Z,29.25
2022-07-31T12:02:56.054Z,29.25
2022-07-31T12:05:36.094Z,29.25
2022-07-31T12:08:06.344Z,29.29
2022-07-31T12:10:32.991Z,29.30
2022-07-31T12:12:59.499Z,29.34
2022-07-31T12:15:26.044Z,29.41
2022-07-31T12:18:02.311Z,29.48
2022-07-31T12:20:35.919Z,29.52
2022-07-31T12:23:05.340Z,29.59
2022-07-31T12:25:45.862Z,29.65
2022-07-31T12:28:16.301Z,29.73
2022-07-31T12:30:43.937Z,29.81
2022-07-31T12:33:12.822Z,29.93
2022-07-31T12:35:56.439Z,30.05
2022-07-31T12:38:45.127Z,30.19
2022-07-31T12:41:13.497Z,30.28
2022-07-31T12:43:50.001Z,30.36
2022-07-31T12:46:17.662Z,30.45
2022-07-31T12:48:47.095Z,30.50
2022-07-31T12:51:13.628Z,30.54
2022-07-31T12:53:40.087Z,30.54
2022-07-31T12:56:11.702Z,30.53
2022-07-31T12:58:38.209Z,30.50
2022-07-31T13:01:04.619Z,30.42
2022-07-31T13:03:45.205Z,30.32
2022-07-31T13:06:12.902Z,30.19
2022-07-31T13:08:39.356Z,30.05
2022-07-31T13:11:05.816Z,29.91
2022-07-31T13:13:32.258Z,29.75
2022-07-31T13:15:58.667Z,29.61
2022-07-31T13:18:25.162Z,29.46
2022-07-31T13:20:51.568Z,29.33
2022-07-31T13:23:18.030Z,29.23
2022-07-31T13:25:44.566Z,29.14
2022-07-31T13:28:11.058Z,29.07
2022-07-31T13:30:37.514Z,29.03
2022-07-31T13:33:04.007Z,28.99
2022-07-31T13:35:31.715Z,28.94
2022-07-31T13:37:58.379Z,28.89
2022-07-31T13:40:44.050Z,28.83
2022-07-31T13:43:11.117Z,28.76
2022-07-31T13:45:37.870Z,28.71
2022-07-31T13:48:08.896Z,28.62
2022-07-31T13:50:37.834Z,28.57
2022-07-31T13:53:04.959Z,28.50
2022-07-31T13:55:31.580Z,28.47
2022-07-31T13:58:00.915Z,28.43
2022-07-31T14:00:27.988Z,28.44
2022-07-31T14:02:54.427Z,28.45
2022-07-31T14:05:20.836Z,28.47
2022-07-31T14:07:51.989Z,28.52
2022-07-31T14:10:20.939Z,28.57
2022-07-31T14:12:48.149Z,28.62
2022-07-31T14:15:14.703Z,28.65
2022-07-31T14:17:41.152Z,28.65
2022-07-31T14:20:08.166Z,28.64
2022-07-31T14:22:34.670Z,28.62
2022-07-31T14:25:01.315Z,28.58
2022-07-31T14:27:27.817Z,28.55
2022-07-31T14:29:54.278Z,28.48
2022-07-31T14:32:22.102Z,28.42
2022-07-31T14:34:50.145Z,28.35
2022-07-31T14:37:17.108Z,28.28
2022-07-31T14:39:44.052Z,28.22
2022-07-31T14:42:11.665Z,28.18
2022-07-31T14:44:41.628Z,28.13
2022-07-31T14:47:09.453Z,28.10
2022-07-31T14:50:08.756Z,28.09
2022-07-31T14:52:22.431Z,28.09
2022-07-31T14:54:49.001Z,28.12
2022-07-31T14:57:20.153Z,28.16
2022-07-31T14:59:49.966Z,28.25
2022-07-31T15:02:21.427Z,28.35
2022-07-31T15:04:48.515Z,28.45
2022-07-31T15:07:34.140Z,28.58
2022-07-31T15:10:05.285Z,28.72
2022-07-31T15:12:32.328Z,28.82
2022-07-31T15:14:58.875Z,28.93
2022-07-31T15:17:25.546Z,29.01
2022-07-31T15:19:52.379Z,29.08
2022-07-31T15:22:19.299Z,29.12
2022-07-31T15:24:49.163Z,29.13
2022-07-31T15:27:22.055Z,29.12
2022-07-31T15:30:00.319Z,29.10
2022-07-31T15:32:36.042Z,29.10
2022-07-31T15:35:03.561Z,29.07
2022-07-31T15:37:30.321Z,29.07
2022-07-31T15:40:02.145Z,29.08
2022-07-31T15:42:30.113Z,29.13
2022-07-31T15:44:56.572Z,29.18
2022-07-31T15:47:22.983Z,29.23
2022-07-31T15:49:49.537Z,29.30
2022-07-31T15:52:19.417Z,29.34
2022-07-31T15:54:46.659Z,29.37
2022-07-31T15:57:13.583Z,29.40
2022-07-31T15:59:41.028Z,29.43
2022-07-31T16:02:07.557Z,29.43
2022-07-31T16:04:34.922Z,29.45
2022-07-31T16:08:32.163Z,29.46
2022-07-31T16:10:04.051Z,29.46
2022-07-31T16:12:35.341Z,29.45
2022-07-31T16:15:02.541Z,29.45
2022-07-31T16:17:37.883Z,29.43
2022-07-31T16:20:10.124Z,29.40
2022-07-31T16:22:38.528Z,29.39
2022-07-31T16:25:06.849Z,29.35
2022-07-31T16:27:33.543Z,29.31
2022-07-31T16:30:01.882Z,29.28
2022-07-31T16:32:29.114Z,29.25
2022-07-31T16:34:59.990Z,29.22
2022-07-31T16:37:51.327Z,29.19
2022-07-31T16:40:29.383Z,29.15
2022-07-31T16:43:48.735Z,29.12
2022-07-31T16:45:53.173Z,29.05
2022-07-31T16:48:19.791Z,28.98
2022-07-31T16:50:48.122Z,28.90
2022-07-31T16:54:09.862Z,28.79
2022-07-31T16:56:02.166Z,28.63
2022-07-31T16:58:29.077Z,28.45
2022-07-31T17:00:55.592Z,28.27
2022-07-31T17:04:01.843Z,28.05
2022-07-31T17:06:10.371Z,27.82
2022-07-31T17:08:38.202Z,27.63
2022-07-31T17:11:05.170Z,27.46
2022-07-31T17:13:31.691Z,27.34
2022-07-31T17:15:58.181Z,27.26
2022-07-31T17:18:25.456Z,27.20
2022-07-31T17:20:56.262Z,27.14
2022-07-31T17:23:43.053Z,27.11
2022-07-31T17:26:21.509Z,27.07
2022-07-31T17:28:49.807Z,27.03
2022-07-31T17:31:16.814Z,26.98
2022-07-31T17:33:59.262Z,26.92
2022-07-31T17:36:28.458Z,26.86
2022-07-31T17:38:57.595Z,26.81
2022-07-31T17:41:25.910Z,26.73
2022-07-31T17:43:54.237Z,26.65
2022-07-31T17:46:28.245Z,26.56
2022-07-31T17:49:01.324Z,26.44
2022-07-31T17:51:27.976Z,26.34
2022-07-31T17:53:59.664Z,26.23
2022-07-31T17:56:26.636Z,26.12
2022-07-31T17:58:53.203Z,26.03
2022-07-31T18:01:19.691Z,25.98
2022-07-31T18:03:46.196Z,25.99
2022-07-31T18:06:12.639Z,26.05
2022-07-31T18:08:39.147Z,26.15
2022-07-31T18:11:06.528Z,26.28
2022-07-31T18:13:47.721Z,26.37
2022-07-31T18:16:15.806Z,26.43
2022-07-31T18:18:42.256Z,26.45
2022-07-31T18:21:08.838Z,26.43
2022-07-31T18:23:35.424Z,26.38
2022-07-31T18:26:03.395Z,26.30
2022-07-31T18:28:31.547Z,26.18
2022-07-31T18:31:01.600Z,26.05
2022-07-31T18:33:28.062Z,25.93
2022-07-31T18:35:54.589Z,25.79
2022-07-31T18:38:21.053Z,25.69
2022-07-31T18:40:47.700Z,25.59
2022-07-31T18:43:14.175Z,25.51
2022-07-31T18:45:41.511Z,25.44
2022-07-31T18:48:08.355Z,25.37
2022-07-31T18:51:01.665Z,25.33
2022-07-31T18:53:21.564Z,25.29
2022-07-31T18:55:48.114Z,25.21
2022-07-31T18:58:14.632Z,25.17
2022-07-31T19:00:41.380Z,25.11
2022-07-31T19:03:08.119Z,25.06
2022-07-31T19:05:35.007Z,25.03
2022-07-31T19:08:01.716Z,24.98
2022-07-31T19:10:31.120Z,24.96
2022-07-31T19:12:58.551Z,24.95
2022-07-31T19:15:25.098Z,24.93
2022-07-31T19:17:51.524Z,24.92
2022-07-31T19:20:56.439Z,24.90
2022-07-31T19:23:12.548Z,24.89
2022-07-31T19:26:02.182Z,24.88
2022-07-31T19:28:27.303Z,24.87
2022-07-31T19:30:54.287Z,24.85
2022-07-31T19:33:20.871Z,24.83
2022-07-31T19:35:56.804Z,24.82
2022-07-31T19:38:27.440Z,24.78
2022-07-31T19:40:54.467Z,24.74
2022-07-31T19:43:20.964Z,24.70
2022-07-31T19:45:58.701Z,24.67
2022-07-31T19:48:35.182Z,24.65
2022-07-31T19:51:01.848Z,24.62
2022-07-31T19:53:28.358Z,24.61
2022-07-31T19:55:54.973Z,24.59
2022-07-31T19:58:21.856Z,24.57
2022-07-31T20:00:48.819Z,24.55
2022-07-31T20:03:15.298Z,24.52
2022-07-31T20:05:41.943Z,24.51
2022-07-31T20:08:08.417Z,24.49
2022-07-31T20:10:34.829Z,24.47
2022-07-31T20:13:01.283Z,24.45
2022-07-31T20:15:27.734Z,24.43
2022-07-31T20:18:26.756Z,24.43
2022-07-31T20:21:07.362Z,24.42
2022-07-31T20:23:38.212Z,24.38
2022-07-31T20:26:06.333Z,24.35
2022-07-31T20:28:32.811Z,24.31
2022-07-31T20:30:59.258Z,24.30
2022-07-31T20:33:25.753Z,24.27
2022-07-31T20:35:52.505Z,24.24
2022-07-31T20:38:23.245Z,24.21
2022-07-31T20:40:54.398Z,24.18
2022-07-31T20:43:28.097Z,24.17
2022-07-31T20:45:59.090Z,24.12
2022-07-31T20:48:31.691Z,24.08
2022-07-31T20:51:03.253Z,24.05
2022-07-31T20:53:30.430Z,23.99
2022-07-31T20:55:58.183Z,23.96
2022-07-31T20:58:26.595Z,23.92
2022-07-31T21:00:54.711Z,23.89
2022-07-31T21:03:21.708Z,23.89
2022-07-31T21:05:48.278Z,23.88
2022-07-31T21:08:15.687Z,23.87
2022-07-31T21:10:42.305Z,23.85
2022-07-31T21:13:09.335Z,23.85
2022-07-31T21:15:43.977Z,23.84
2022-07-31T21:18:13.521Z,23.82
2022-07-31T21:20:49.903Z,23.78
2022-07-31T21:23:21.730Z,23.76
2022-07-31T21:25:48.618Z,23.74
2022-07-31T21:28:15.347Z,23.72
2022-07-31T21:30:41.952Z,23.69
2022-07-31T21:33:09.795Z,23.67
2022-07-31T21:35:39.828Z,23.65
2022-07-31T21:38:11.702Z,23.63
2022-07-31T21:40:40.223Z,23.61
2022-07-31T21:43:07.729Z,23.59
2022-07-31T21:45:50.809Z,23.58
2022-07-31T21:48:23.392Z,23.57
2022-07-31T21:50:50.116Z,23.55
2022-07-31T21:53:16.564Z,23.52
2022-07-31T21:55:44.084Z,23.51
2022-07-31T21:58:11.101Z,23.47
2022-07-31T22:00:37.820Z,23.44
2022-07-31T22:03:05.049Z,23.41
2022-07-31T22:05:50.938Z,23.39
2022-07-31T22:08:18.116Z,23.37
2022-07-31T22:10:44.960Z,23.34
2022-07-31T22:13:11.821Z,23.31
2022-07-31T22:15:55.387Z,23.30
2022-07-31T22:18:29.779Z,23.30
2022-07-31T22:20:57.201Z,23.28
2022-07-31T22:23:23.870Z,23.26
2022-07-31T22:25:50.667Z,23.23
2022-07-31T22:28:19.479Z,23.21
2022-07-31T22:30:46.398Z,23.16
2022-07-31T22:33:15.916Z,23.09
2022-07-31T22:35:43.054Z,23.03
2022-07-31T22:38:11.594Z,22.95
2022-07-31T22:40:38.455Z,22.91
2022-07-31T22:43:23.344Z,22.86
2022-07-31T22:45:53.002Z,22.83
2022-07-31T22:48:21.659Z,22.80
2022-07-31T22:50:49.013Z,22.78
2022-07-31T22:53:16.044Z,22.76
2022-07-31T22:55:42.677Z,22.74
2022-07-31T22:58:11.306Z,22.74
2022-07-31T23:00:38.096Z,22.73
2022-07-31T23:03:04.624Z,22.71
2022-07-31T23:06:02.960Z,22.70
2022-07-31T23:08:17.399Z,22.73
2022-07-31T23:10:43.747Z,22.75
2022-07-31T23:13:10.179Z,22.74
2022-07-31T23:15:36.664Z,22.71
2022-07-31T23:18:03.172Z,22.69
2022-07-31T23:20:29.651Z,22.66
2022-07-31T23:22:56.114Z,22.64
2022-07-31T23:25:23.733Z,22.60
2022-07-31T23:27:50.204Z,22.57
2022-07-31T23:30:16.719Z,22.54
2022-07-31T23:32:43.179Z,22.53
2022-07-31T23:35:09.931Z,22.51
2022-07-31T23:37:36.451Z,22.49
2022-07-31T23:40:03.298Z,22.49
2022-07-31T23:42:38.816Z,22.48
2022-07-31T23:45:11.352Z,22.51
2022-07-31T23:47:45.012Z,22.51
2022-07-31T23:50:13.805Z,22.53
2022-07-31T23:52:40.651Z,22.54
2022-07-31T23:55:07.282Z,22.54
2022-07-31T23:57:34.448Z,22.54
